| time (UTC) | temp F | wind direction | speed knots | gust knots | rain 1hr in | rain 24hr in | rain mn in | humidity % | barometer mb |
| 20260831053851 | 67 | 36 | 0.9 | 3.5 | 0.00 | 0.00 | 0.00 | 72 | 1007.8 |
| 20260831053347 | 67 | 40 | 1.7 | 4.3 | 0.00 | 0.00 | 0.00 | 70 | 1007.9 |
| 20260831052844 | 67 | 55 | 0.9 | 5.2 | 0.00 | 0.00 | 0.00 | 69 | 1007.7 |
| 20260831052558 | 68 | 20 | 3.5 | 5.2 | 0.00 | 0.00 | 0.00 | 69 | 1007.8 |
| 20260831051835 | 68 | 17 | 1.7 | 4.3 | 0.00 | 0.00 | 0.00 | 68 | 1007.9 |
| 20260831051342 | 68 | 18 | 0.0 | 3.5 | 0.00 | 0.00 | 0.00 | 68 | 1007.9 |
| 20260831050825 | 68 | 41 | 1.7 | 3.5 | 0.00 | 0.00 | 0.00 | 68 | 1007.7 |
| 20260831050322 | 68 | 38 | 0.9 | 5.2 | 0.00 | 0.00 | 0.00 | 66 | 1008.0 |
| 20260831045818 | 68 | 132 | 1.7 | 5.2 | 0.00 | 0.00 | 0.00 | 68 | 1008.0 |
| 20260831045314 | 68 | 31 | 1.7 | 3.5 | 0.00 | 0.00 | 0.00 | 67 | 1007.7 |
| 20260831045248 | 69 | 340 | 0.9 | 3.5 | 0.00 | 0.00 | 0.00 | 65 | 1007.9 |
| 20260831044255 | 69 | 322 | 1.7 | 7.0 | 0.00 | 0.00 | 0.00 | 65 | 1007.8 |
| 20260831044007 | 70 | 339 | 1.7 | 7.0 | 0.00 | 0.00 | 0.00 | 65 | 1007.7 |
| 20260831043216 | 70 | 3 | 0.9 | 3.5 | 0.00 | 0.00 | 0.00 | 64 | 1007.9 |
| 20260831042713 | 70 | 67 | 2.6 | 2.6 | 0.00 | 0.00 | 0.00 | 65 | 1007.8 |
| 20260831042208 | 70 | 356 | 1.7 | 2.6 | 0.00 | 0.00 | 0.00 | 63 | 1007.7 |
| 20260831041645 | 70 | 15 | 1.7 | 3.5 | 0.00 | 0.00 | 0.00 | 64 | 1007.9 |
| 20260831041142 | 71 | 79 | 0.0 | 3.5 | 0.00 | 0.00 | 0.00 | 62 | 1007.8 |
| 20260831040615 | 72 | 33 | 0.9 | 5.2 | 0.00 | 0.00 | 0.00 | 60 | 1007.8 |
| 20260831040112 | 71 | 4 | 2.6 | 5.2 | 0.00 | 0.00 | 0.00 | 59 | 1007.8 |
| 20260831035606 | 71 | 29 | 1.7 | 4.3 | 0.00 | 0.00 | 0.00 | 61 | 1007.8 |
| 20260831035103 | 71 | 17 | 1.7 | 3.5 | 0.00 | 0.00 | 0.00 | 61 | 1007.8 |
| 20260831034559 | 70 | 12 | 1.7 | 3.5 | 0.00 | 0.00 | 0.00 | 63 | 1007.8 |
| 20260831034054 | 70 | 16 | 1.7 | 3.5 | 0.00 | 0.00 | 0.00 | 61 | 1007.9 |
| 20260831033539 | 72 | 15 | 2.6 | 3.5 | 0.00 | 0.00 | 0.00 | 59 | 1007.9 |
| 20260831033036 | 72 | 28 | 1.7 | 5.2 | 0.00 | 0.00 | 0.00 | 59 | 1007.8 |
| 20260831032532 | 71 | 0 | 1.7 | 5.2 | 0.00 | 0.00 | 0.00 | 62 | 1007.9 |
| 20260831032028 | 70 | 25 | 2.6 | 3.5 | 0.00 | 0.00 | 0.00 | 65 | 1007.8 |
| 20260831031526 | 69 | 25 | 0.9 | 3.5 | 0.00 | 0.00 | 0.00 | 65 | 1008.0 |
| 20260831031009 | 70 | 9 | 0.0 | 3.5 | 0.00 | 0.00 | 0.00 | 63 | 1007.8 |
| 20260831030505 | 69 | 20 | 0.9 | 3.5 | 0.00 | 0.00 | 0.00 | 64 | 1008.0 |
| 20260831025941 | 71 | 54 | 0.0 | 3.5 | 0.00 | 0.00 | 0.00 | 63 | 1007.9 |
| 20260831025436 | 71 | 3 | 3.5 | 3.5 | 0.00 | 0.00 | 0.00 | 63 | 1008.1 |
| 20260831024932 | 72 | 11 | 1.7 | 3.5 | 0.00 | 0.00 | 0.00 | 62 | 1008.1 |
| 20260831024428 | 73 | 347 | 1.7 | 3.5 | 0.00 | 0.00 | 0.00 | 61 | 1008.1 |
| 20260831023924 | 72 | 346 | 1.7 | 3.5 | 0.00 | 0.00 | 0.00 | 63 | 1008.1 |
| 20260831023420 | 71 | 352 | 0.9 | 4.3 | 0.00 | 0.00 | 0.00 | 64 | 1008.2 |
| 20260831023135 | 73 | 19 | 2.6 | 4.3 | 0.00 | 0.00 | 0.00 | 63 | 1008.5 |
| 20260831022412 | 73 | 352 | 1.7 | 3.5 | 0.00 | 0.00 | 0.00 | 62 | 1008.3 |
| 20260831021908 | 71 | 15 | 2.6 | 4.3 | 0.00 | 0.00 | 0.00 | 64 | 1008.4 |
| 20260831021351 | 70 | 1 | 1.7 | 4.3 | 0.00 | 0.00 | 0.00 | 68 | 1008.5 |
| 20260831020839 | 69 | 15 | 1.7 | 3.5 | 0.00 | 0.00 | 0.00 | 68 | 1008.6 |
| 20260831020335 | 69 | 348 | 0.0 | 4.3 | 0.00 | 0.00 | 0.00 | 68 | 1008.5 |
| 20260831015831 | 70 | 20 | 1.7 | 4.3 | 0.00 | 0.00 | 0.00 | 67 | 1008.7 |
| 20260831015320 | 70 | 17 | 1.7 | 3.5 | 0.00 | 0.00 | 0.00 | 67 | 1008.7 |
| 20260831014820 | 69 | 348 | 1.7 | 3.5 | 0.00 | 0.00 | 0.00 | 67 | 1008.9 |
| 20260831014320 | 68 | 28 | 0.9 | 3.5 | 0.00 | 0.00 | 0.00 | 68 | 1009.0 |
| 20260831013815 | 69 | 27 | 1.7 | 3.5 | 0.00 | 0.00 | 0.00 | 67 | 1008.9 |
| 20260831013311 | 68 | 2 | 2.6 | 3.5 | 0.00 | 0.00 | 0.00 | 67 | 1008.9 |
| 20260831012806 | 69 | 1 | 2.6 | 3.5 | 0.00 | 0.00 | 0.00 | 67 | 1008.8 |
| 20260831012305 | 69 | 7 | 1.7 | 4.3 | 0.00 | 0.00 | 0.00 | 68 | 1009.1 |
| 20260831011748 | 71 | 344 | 1.7 | 4.3 | 0.00 | 0.00 | 0.00 | 66 | 1009.2 |
| 20260831011244 | 71 | 18 | 1.7 | 5.2 | 0.00 | 0.00 | 0.00 | 65 | 1009.2 |
| 20260831010740 | 71 | 0 | 0.0 | 5.2 | 0.00 | 0.00 | 0.00 | 65 | 1009.2 |
| 20260831010235 | 71 | 343 | 4.3 | 5.2 | 0.00 | 0.00 | 0.00 | 64 | 1009.3 |
| 20260831005721 | 70 | 12 | 2.6 | 4.3 | 0.00 | 0.00 | 0.00 | 66 | 1009.4 |
| 20260831005217 | 70 | 18 | 2.6 | 4.3 | 0.00 | 0.00 | 0.00 | 64 | 1009.3 |
| 20260831004934 | 69 | 12 | 1.7 | 4.3 | 0.00 | 0.00 | 0.00 | 65 | 1009.5 |
| 20260831004208 | 70 | 23 | 1.7 | 4.3 | 0.00 | 0.00 | 0.00 | 67 | 1009.6 |
| 20260831003654 | 69 | 18 | 1.7 | 4.3 | 0.00 | 0.00 | 0.00 | 66 | 1009.5 |
| 20260831003148 | 69 | 22 | 1.7 | 4.3 | 0.00 | 0.00 | 0.00 | 66 | 1009.6 |
| 20260831002648 | 68 | 354 | 0.9 | 3.5 | 0.00 | 0.00 | 0.00 | 67 | 1009.7 |
| 20260831002409 | 68 | 84 | 1.7 | 3.5 | 0.00 | 0.00 | 0.00 | 67 | 1009.7 |
| 20260831001648 | 68 | 3 | 1.7 | 3.5 | 0.00 | 0.00 | 0.00 | 67 | 1009.8 |
| 20260831001143 | 68 | 19 | 1.7 | 3.5 | 0.00 | 0.00 | 0.00 | 66 | 1009.8 |
| 20260831000640 | 66 | 5 | 0.0 | 4.3 | 0.00 | 0.00 | 0.00 | 68 | 1009.9 |
| 20260831000136 | 67 | 0 | 1.7 | 4.3 | 0.00 | 0.00 | 0.00 | 68 | 1009.9 |
| 20260830235632 | 67 | 168 | 3.5 | 4.3 | 0.00 | 0.00 | 0.00 | 68 | 1009.8 |
| 20260830235128 | 67 | 167 | 3.5 | 4.3 | 0.00 | 0.00 | 0.00 | 67 | 1009.9 |
| 20260830234614 | 66 | 170 | 2.6 | 5.2 | 0.00 | 0.00 | 0.00 | 69 | 1010.2 |
| 20260830234109 | 65 | 175 | 3.5 | 5.2 | 0.00 | 0.00 | 0.00 | 71 | 1010.1 |
| 20260830233555 | 65 | 186 | 2.6 | 5.2 | 0.00 | 0.00 | 0.00 | 74 | 1010.2 |
| 20260830233051 | 63 | 187 | 2.6 | 5.2 | 0.00 | 0.00 | 0.00 | 78 | 1010.0 |
| 20260830232558 | 63 | 174 | 4.3 | 4.3 | 0.00 | 0.00 | 0.00 | 80 | 1010.2 |
| 20260830232042 | 60 | 176 | 3.5 | 4.3 | 0.00 | 0.00 | 0.00 | 86 | 1010.2 |
| 20260830231538 | 59 | 178 | 3.5 | 4.3 | 0.00 | 0.00 | 0.00 | 87 | 1010.4 |
| 20260830231240 | 59 | 182 | 3.5 | 4.3 | 0.00 | 0.00 | 0.00 | 88 | 1010.3 |
| 20260830230509 | 58 | 195 | 2.6 | 4.3 | 0.00 | 0.00 | 0.00 | 88 | 1010.4 |
| 20260830230227 | 59 | 177 | 3.5 | 4.3 | 0.00 | 0.00 | 0.00 | 88 | 1010.4 |
| 20260830225502 | 59 | 180 | 2.6 | 4.3 | 0.00 | 0.00 | 0.00 | 88 | 1010.3 |
| 20260830224957 | 58 | 177 | 3.5 | 4.3 | 0.00 | 0.00 | 0.00 | 91 | 1010.1 |
| 20260830224445 | 57 | 179 | 3.5 | 4.3 | 0.00 | 0.00 | 0.00 | 93 | 1010.2 |
| 20260830223945 | 57 | 179 | 3.5 | 4.3 | 0.00 | 0.00 | 0.00 | 95 | 1010.3 |
| 20260830223445 | 56 | 175 | 3.5 | 4.3 | 0.00 | 0.00 | 0.00 | 96 | 1010.1 |
| 20260830222932 | 56 | 179 | 2.6 | 4.3 | 0.00 | 0.00 | 0.00 | 97 | 1010.2 |
| 20260830222639 | 56 | 177 | 3.5 | 4.3 | 0.00 | 0.00 | 0.00 | 97 | 1010.1 |
| 20260830221915 | 55 | 178 | 3.5 | 4.3 | 0.00 | 0.00 | 0.00 | 98 | 1010.1 |
| 20260830221414 | 55 | 172 | 3.5 | 4.3 | 0.00 | 0.00 | 0.00 | 98 | 1010.1 |
| 20260830220914 | 55 | 180 | 2.6 | 4.3 | 0.00 | 0.00 | 0.00 | 98 | 1009.9 |
| 20260830220852 | 55 | 181 | 3.5 | 4.3 | 0.00 | 0.00 | 0.00 | 98 | 1010.0 |
| 20260830215856 | 55 | 169 | 3.5 | 4.3 | 0.00 | 0.00 | 0.00 | 98 | 1010.1 |
| 20260830215351 | 54 | 177 | 4.3 | 4.3 | 0.00 | 0.00 | 0.00 | 98 | 1010.0 |
| 20260830214847 | 54 | 182 | 3.5 | 5.2 | 0.00 | 0.00 | 0.00 | 98 | 1009.8 |
| 20260830214343 | 53 | 178 | 3.5 | 5.2 | 0.00 | 0.00 | 0.00 | 98 | 1009.8 |
| 20260830213843 | 53 | 188 | 2.6 | 3.5 | 0.00 | 0.00 | 0.00 | 98 | 1009.6 |
| 20260830213344 | 53 | 189 | 3.5 | 3.5 | 0.00 | 0.00 | 0.00 | 98 | 1009.7 |
| 20260830212844 | 53 | 182 | 2.6 | 3.5 | 0.00 | 0.00 | 0.00 | 98 | 1009.8 |
| 20260830212337 | 53 | 180 | 3.5 | 3.5 | 0.00 | 0.00 | 0.00 | 98 | 1009.6 |
| 20260830211812 | 53 | 200 | 2.6 | 4.3 | 0.00 | 0.00 | 0.00 | 98 | 1009.6 |
| 20260830211748 | 54 | 189 | 2.6 | 4.3 | 0.00 | 0.00 | 0.00 | 98 | 1009.3 |
| 20260830210755 | 53 | 173 | 3.5 | 4.3 | 0.00 | 0.00 | 0.00 | 99 | 1009.4 |
| 20260830210230 | 52 | 180 | 3.5 | 4.3 | 0.00 | 0.00 | 0.00 | 98 | 1009.5 |
| 20260830205726 | 52 | 185 | 3.5 | 4.3 | 0.00 | 0.00 | 0.00 | 98 | 1009.5 |
| 20260830205212 | 52 | 181 | 3.5 | 4.3 | 0.00 | 0.00 | 0.00 | 98 | 1009.4 |
| 20260830204713 | 51 | 177 | 4.3 | 4.3 | 0.00 | 0.00 | 0.00 | 99 | 1009.3 |
| 20260830204212 | 51 | 174 | 2.6 | 4.3 | 0.00 | 0.00 | 0.00 | 98 | 1009.3 |
| 20260830203932 | 51 | 170 | 3.5 | 4.3 | 0.00 | 0.00 | 0.00 | 98 | 1009.3 |
| 20260830203155 | 51 | 179 | 3.5 | 4.3 | 0.00 | 0.00 | 0.00 | 98 | 1009.3 |
| 20260830202641 | 51 | 177 | 3.5 | 4.3 | 0.00 | 0.00 | 0.00 | 98 | 1009.1 |
| 20260830202141 | 51 | 179 | 3.5 | 4.3 | 0.00 | 0.00 | 0.00 | 98 | 1009.0 |
| 20260830201654 | 51 | 176 | 3.5 | 4.3 | 0.00 | 0.00 | 0.00 | 98 | 1009.1 |
| 20260830201358 | 51 | 181 | 3.5 | 4.3 | 0.00 | 0.00 | 0.00 | 98 | 1009.1 |
| 20260830200611 | 51 | 175 | 3.5 | 4.3 | 0.00 | 0.00 | 0.00 | 98 | 1009.0 |
| 20260830200113 | 51 | 183 | 3.5 | 4.3 | 0.00 | 0.00 | 0.00 | 98 | 1008.8 |
| 20260830195556 | 51 | 177 | 4.3 | 4.3 | 0.00 | 0.00 | 0.00 | 98 | 1008.8 |
| 20260830195041 | 51 | 178 | 4.3 | 4.3 | 0.00 | 0.00 | 0.00 | 98 | 1008.9 |
| 20260830194537 | 51 | 177 | 4.3 | 5.2 | 0.00 | 0.00 | 0.00 | 98 | 1008.8 |
| 20260830194254 | 51 | 180 | 3.5 | 5.2 | 0.00 | 0.00 | 0.00 | 98 | 1008.6 |
| 20260830193530 | 51 | 180 | 5.2 | 5.2 | 0.00 | 0.00 | 0.00 | 98 | 1008.5 |
| 20260830193010 | 52 | 179 | 3.5 | 5.2 | 0.00 | 0.00 | 0.00 | 98 | 1008.4 |
| 20260830192510 | 52 | 178 | 4.3 | 5.2 | 0.00 | 0.00 | 0.00 | 98 | 1008.3 |
| 20260830191947 | 52 | 180 | 4.3 | 5.2 | 0.00 | 0.00 | 0.00 | 99 | 1008.3 |
| 20260830191440 | 51 | 175 | 3.5 | 5.2 | 0.00 | 0.00 | 0.00 | 99 | 1008.2 |
| 20260830190939 | 51 | 180 | 4.3 | 5.2 | 0.00 | 0.00 | 0.00 | 98 | 1008.3 |
| 20260830190425 | 51 | 173 | 4.3 | 5.2 | 0.00 | 0.00 | 0.00 | 98 | 1008.3 |
| 20260830185908 | 51 | 173 | 3.5 | 5.2 | 0.00 | 0.00 | 0.00 | 98 | 1008.3 |
| 20260830185406 | 51 | 178 | 4.3 | 5.2 | 0.00 | 0.00 | 0.00 | 98 | 1008.3 |
| 20260830185107 | 51 | 172 | 4.3 | 5.2 | 0.00 | 0.00 | 0.00 | 98 | 1008.2 |
| 20260830184601 | 51 | 174 | 4.3 | 5.2 | 0.00 | 0.00 | 0.00 | 98 | 1008.3 |
| 20260830183838 | 51 | 179 | 3.5 | 5.2 | 0.00 | 0.00 | 0.00 | 98 | 1008.4 |
| 20260830183338 | 51 | 178 | 5.2 | 5.2 | 0.00 | 0.00 | 0.00 | 98 | 1008.3 |
| 20260830182835 | 51 | 176 | 4.3 | 5.2 | 0.00 | 0.00 | 0.00 | 98 | 1008.4 |
| 20260830182311 | 51 | 172 | 3.5 | 5.2 | 0.00 | 0.00 | 0.00 | 98 | 1008.3 |
| 20260830181757 | 51 | 179 | 4.3 | 5.2 | 0.00 | 0.00 | 0.00 | 98 | 1008.2 |
| 20260830181737 | 51 | 180 | 3.5 | 5.2 | 0.00 | 0.00 | 0.00 | 98 | 1008.2 |
| 20260830180738 | 51 | 175 | 3.5 | 5.2 | 0.00 | 0.00 | 0.00 | 98 | 1008.3 |
| 20260830180234 | 51 | 179 | 4.3 | 5.2 | 0.00 | 0.00 | 0.00 | 98 | 1008.2 |
| 20260830175730 | 51 | 173 | 4.3 | 5.2 | 0.00 | 0.00 | 0.00 | 98 | 1008.3 |
| 20260830175216 | 51 | 174 | 3.5 | 4.3 | 0.00 | 0.00 | 0.00 | 98 | 1008.2 |
| 20260830174713 | 51 | 185 | 3.5 | 4.3 | 0.00 | 0.00 | 0.00 | 98 | 1008.2 |
| 20260830174207 | 51 | 175 | 3.5 | 5.2 | 0.00 | 0.00 | 0.00 | 98 | 1008.4 |
| 20260830173655 | 52 | 175 | 4.3 | 5.2 | 0.00 | 0.00 | 0.00 | 98 | 1008.3 |
| 20260830173149 | 51 | 179 | 4.3 | 5.2 | 0.00 | 0.00 | 0.00 | 98 | 1008.4 |
| 20260830172646 | 51 | 179 | 3.5 | 5.2 | 0.00 | 0.00 | 0.00 | 98 | 1008.2 |
| 20260830172137 | 51 | 180 | 4.3 | 5.2 | 0.00 | 0.00 | 0.00 | 98 | 1008.3 |
| 20260830171637 | 51 | 177 | 4.3 | 5.2 | 0.00 | 0.00 | 0.00 | 98 | 1008.3 |
| 20260830171113 | 51 | 173 | 3.5 | 5.2 | 0.00 | 0.00 | 0.00 | 98 | 1008.3 |
| 20260830170606 | 51 | 178 | 3.5 | 5.2 | 0.00 | 0.00 | 0.00 | 98 | 1008.3 |
| 20260830170107 | 51 | 180 | 3.5 | 4.3 | 0.00 | 0.00 | 0.00 | 98 | 1008.3 |
| 20260830165551 | 51 | 176 | 3.5 | 4.3 | 0.00 | 0.00 | 0.00 | 98 | 1008.4 |
| 20260830165046 | 51 | 178 | 3.5 | 4.3 | 0.00 | 0.00 | 0.00 | 98 | 1008.4 |
| 20260830164522 | 51 | 177 | 3.5 | 4.3 | 0.00 | 0.00 | 0.00 | 98 | 1008.3 |
| 20260830164018 | 51 | 175 | 3.5 | 4.3 | 0.00 | 0.00 | 0.00 | 98 | 1008.4 |
| 20260830163514 | 51 | 173 | 4.3 | 4.3 | 0.00 | 0.00 | 0.00 | 98 | 1008.4 |
| 20260830163010 | 52 | 177 | 4.3 | 4.3 | 0.00 | 0.00 | 0.00 | 98 | 1008.6 |
| 20260830162730 | 52 | 177 | 3.5 | 4.3 | 0.00 | 0.00 | 0.00 | 98 | 1008.6 |
| 20260830161951 | 52 | 176 | 3.5 | 4.3 | 0.00 | 0.00 | 0.00 | 98 | 1008.5 |
| 20260830161706 | 52 | 185 | 3.5 | 4.3 | 0.00 | 0.00 | 0.00 | 98 | 1008.5 |
| 20260830160943 | 52 | 179 | 3.5 | 4.3 | 0.00 | 0.00 | 0.00 | 98 | 1008.5 |
| 20260830160428 | 53 | 175 | 3.5 | 4.3 | 0.00 | 0.00 | 0.00 | 98 | 1008.5 |
| 20260830160138 | 53 | 179 | 3.5 | 4.3 | 0.00 | 0.00 | 0.00 | 98 | 1008.4 |
| 20260830155409 | 53 | 171 | 3.5 | 4.3 | 0.00 | 0.00 | 0.00 | 98 | 1008.6 |
| 20260830154905 | 53 | 174 | 4.3 | 4.3 | 0.00 | 0.00 | 0.00 | 98 | 1008.7 |
| 20260830154402 | 53 | 177 | 3.5 | 4.3 | 0.00 | 0.00 | 0.00 | 98 | 1008.8 |
| 20260830153858 | 53 | 182 | 2.6 | 5.2 | 0.00 | 0.00 | 0.00 | 98 | 1008.6 |
| 20260830153353 | 53 | 173 | 3.5 | 5.2 | 0.00 | 0.00 | 0.00 | 98 | 1008.7 |
| 20260830152849 | 53 | 177 | 3.5 | 5.2 | 0.00 | 0.00 | 0.00 | 98 | 1008.7 |
| 20260830152325 | 53 | 175 | 3.5 | 5.2 | 0.00 | 0.00 | 0.00 | 98 | 1008.8 |
| 20260830152034 | 53 | 179 | 4.3 | 5.2 | 0.00 | 0.00 | 0.00 | 98 | 1009.0 |
| 20260830151256 | 53 | 172 | 3.5 | 5.2 | 0.00 | 0.00 | 0.00 | 98 | 1009.0 |
| 20260830150753 | 53 | 176 | 4.3 | 5.2 | 0.00 | 0.00 | 0.00 | 97 | 1009.0 |
| 20260830150249 | 53 | 180 | 3.5 | 5.2 | 0.00 | 0.00 | 0.00 | 97 | 1009.1 |
| 20260830150003 | 53 | 179 | 3.5 | 4.3 | 0.00 | 0.00 | 0.00 | 98 | 1009.0 |
| 20260830145232 | 53 | 172 | 3.5 | 5.2 | 0.00 | 0.01 | 0.00 | 98 | 1009.1 |
| 20260830144716 | 53 | 173 | 4.3 | 5.2 | 0.00 | 0.01 | 0.00 | 98 | 1009.3 |
| 20260830144212 | 53 | 169 | 3.5 | 5.2 | 0.00 | 0.01 | 0.00 | 97 | 1009.3 |
| 20260830143701 | 53 | 179 | 3.5 | 5.2 | 0.00 | 0.01 | 0.00 | 97 | 1009.3 |
| 20260830143154 | 52 | 176 | 4.3 | 5.2 | 0.00 | 0.01 | 0.00 | 97 | 1009.2 |
| 20260830142639 | 52 | 178 | 3.5 | 5.2 | 0.00 | 0.01 | 0.00 | 97 | 1009.5 |
| 20260830142411 | 52 | 173 | 3.5 | 4.3 | 0.00 | 0.01 | 0.00 | 97 | 1009.5 |
| 20260830141631 | 52 | 174 | 4.3 | 4.3 | 0.00 | 0.01 | 0.00 | 97 | 1009.3 |
| 20260830141609 | 52 | 173 | 3.5 | 4.3 | 0.00 | 0.01 | 0.00 | 97 | 1009.4 |
| 20260830140612 | 53 | 180 | 3.5 | 4.3 | 0.00 | 0.01 | 0.00 | 97 | 1009.4 |
| 20260830140328 | 53 | 182 | 3.5 | 4.3 | 0.00 | 0.01 | 0.00 | 97 | 1009.4 |
| 20260830135600 | 53 | 179 | 3.5 | 4.3 | 0.00 | 0.01 | 0.01 | 97 | 1009.5 |
| 20260830135100 | 53 | 176 | 4.3 | 4.3 | 0.00 | 0.01 | 0.01 | 97 | 1009.4 |
| 20260830134600 | 53 | 182 | 3.5 | 5.2 | 0.00 | 0.01 | 0.01 | 97 | 1009.3 |
| 20260830134100 | 53 | 177 | 4.3 | 5.2 | 0.00 | 0.01 | 0.01 | 97 | 1009.3 |
| 20260830133823 | 53 | 174 | 4.3 | 5.2 | 0.00 | 0.01 | 0.01 | 97 | 1009.6 |
| 20260830133309 | 53 | 176 | 4.3 | 5.2 | 0.00 | 0.01 | 0.01 | 97 | 1009.3 |
| 20260830132540 | 53 | 175 | 4.3 | 5.2 | 0.00 | 0.01 | 0.01 | 97 | 1009.3 |
| 20260830132036 | 53 | 170 | 3.5 | 5.2 | 0.00 | 0.01 | 0.01 | 97 | 1009.2 |
| 20260830131521 | 53 | 180 | 4.3 | 5.2 | 0.00 | 0.01 | 0.01 | 97 | 1009.3 |
| 20260830131017 | 53 | 173 | 4.3 | 5.2 | 0.00 | 0.01 | 0.01 | 97 | 1009.1 |
| 20260830131000 | 53 | 176 | 4.3 | 5.2 | 0.00 | 0.02 | 0.01 | 97 | 1009.1 |
| 20260830130010 | 53 | 179 | 4.3 | 5.2 | 0.00 | 0.02 | 0.01 | 97 | 1009.3 |
| 20260830125445 | 53 | 179 | 5.2 | 5.2 | 0.00 | 0.02 | 0.01 | 97 | 1009.1 |
| 20260830124941 | 53 | 175 | 3.5 | 5.2 | 0.00 | 0.02 | 0.01 | 97 | 1009.1 |
| 20260830124437 | 53 | 178 | 3.5 | 5.2 | 0.00 | 0.02 | 0.01 | 97 | 1009.2 |
| 20260830123933 | 53 | 179 | 4.3 | 5.2 | 0.00 | 0.02 | 0.01 | 97 | 1009.1 |
| 20260830123428 | 52 | 176 | 3.5 | 4.3 | 0.00 | 0.03 | 0.01 | 96 | 1009.2 |
| 20260830122929 | 53 | 176 | 3.5 | 4.3 | 0.00 | 0.03 | 0.01 | 96 | 1009.3 |
| 20260830122428 | 53 | 178 | 3.5 | 4.3 | 0.00 | 0.03 | 0.01 | 96 | 1009.2 |
| 20260830121928 | 53 | 177 | 4.3 | 4.3 | 0.00 | 0.03 | 0.01 | 96 | 1009.3 |
| 20260830121411 | 53 | 178 | 3.5 | 5.2 | 0.00 | 0.03 | 0.01 | 96 | 1009.5 |
| 20260830120857 | 53 | 176 | 4.3 | 5.2 | 0.00 | 0.03 | 0.01 | 96 | 1009.2 |
| 20260830120602 | 53 | 178 | 3.5 | 5.2 | 0.00 | 0.03 | 0.01 | 96 | 1009.1 |
| 20260830115839 | 53 | 171 | 4.3 | 5.2 | 0.00 | 0.03 | 0.01 | 96 | 1009.2 |
| 20260830115314 | 53 | 179 | 4.3 | 4.3 | 0.00 | 0.03 | 0.01 | 96 | 1009.1 |
| 20260830114810 | 53 | 175 | 4.3 | 4.3 | 0.00 | 0.03 | 0.01 | 96 | 1009.1 |
| 20260830114306 | 53 | 174 | 3.5 | 4.3 | 0.00 | 0.03 | 0.01 | 96 | 1009.2 |
| 20260830114021 | 53 | 184 | 3.5 | 4.3 | 0.00 | 0.03 | 0.01 | 96 | 1009.4 |
| 20260830113257 | 54 | 179 | 3.5 | 4.3 | 0.00 | 0.03 | 0.01 | 95 | 1009.3 |
| 20260830112753 | 54 | 179 | 2.6 | 4.3 | 0.00 | 0.03 | 0.01 | 95 | 1009.6 |
| 20260830112226 | 54 | 180 | 3.5 | 4.3 | 0.00 | 0.03 | 0.01 | 95 | 1009.3 |
| 20260830111726 | 54 | 179 | 3.5 | 5.2 | 0.00 | 0.03 | 0.01 | 95 | 1009.3 |
| 20260830111226 | 54 | 181 | 4.3 | 5.2 | 0.00 | 0.03 | 0.01 | 95 | 1009.3 |
| 20260830110949 | 54 | 174 | 3.5 | 4.3 | 0.00 | 0.03 | 0.01 | 95 | 1009.3 |
| 20260830110446 | 54 | 180 | 3.5 | 4.3 | 0.00 | 0.03 | 0.01 | 95 | 1009.1 |
| 20260830105719 | 55 | 180 | 3.5 | 4.3 | 0.00 | 0.03 | 0.01 | 95 | 1009.3 |
| 20260830105215 | 55 | 185 | 3.5 | 4.3 | 0.00 | 0.03 | 0.01 | 95 | 1009.0 |
| 20260830104710 | 54 | 177 | 3.5 | 5.2 | 0.00 | 0.03 | 0.01 | 94 | 1009.0 |
| 20260830104206 | 54 | 182 | 3.5 | 5.2 | 0.00 | 0.03 | 0.01 | 94 | 1009.0 |
| 20260830103702 | 55 | 183 | 4.3 | 5.2 | 0.00 | 0.03 | 0.01 | 94 | 1009.0 |
| 20260830103156 | 55 | 180 | 3.5 | 5.2 | 0.00 | 0.03 | 0.01 | 94 | 1009.1 |
| 20260830102655 | 55 | 175 | 4.3 | 5.2 | 0.00 | 0.03 | 0.01 | 93 | 1009.0 |
| 20260830102140 | 55 | 177 | 4.3 | 5.2 | 0.00 | 0.03 | 0.01 | 93 | 1009.0 |
| 20260830101625 | 55 | 172 | 4.3 | 5.2 | 0.00 | 0.03 | 0.01 | 93 | 1009.1 |
| 20260830101122 | 55 | 179 | 4.3 | 4.3 | 0.00 | 0.03 | 0.01 | 93 | 1009.2 |
| 20260830100840 | 55 | 181 | 2.6 | 4.3 | 0.00 | 0.03 | 0.01 | 93 | 1008.8 |
| 20260830100114 | 55 | 181 | 3.5 | 4.3 | 0.00 | 0.03 | 0.01 | 92 | 1008.8 |
| 20260830095553 | 55 | 176 | 3.5 | 4.3 | 0.00 | 0.03 | 0.01 | 92 | 1008.8 |
| 20260830095314 | 56 | 191 | 3.5 | 4.3 | 0.00 | 0.03 | 0.01 | 91 | 1008.7 |
| 20260830094541 | 56 | 179 | 3.5 | 4.3 | 0.00 | 0.03 | 0.01 | 91 | 1008.6 |
| 20260830094036 | 56 | 180 | 3.5 | 4.3 | 0.00 | 0.03 | 0.01 | 90 | 1008.6 |
| 20260830093733 | 56 | 171 | 4.3 | 4.3 | 0.00 | 0.03 | 0.01 | 90 | 1008.7 |
| 20260830093008 | 56 | 174 | 3.5 | 4.3 | 0.00 | 0.03 | 0.01 | 89 | 1008.5 |
| 20260830092454 | 56 | 173 | 3.5 | 4.3 | 0.00 | 0.03 | 0.01 | 88 | 1008.3 |
| 20260830091949 | 57 | 175 | 3.5 | 4.3 | 0.00 | 0.03 | 0.01 | 88 | 1008.4 |
| 20260830091700 | 57 | 180 | 3.5 | 4.3 | 0.00 | 0.03 | 0.01 | 87 | 1008.3 |
| 20260830091148 | 57 | 182 | 3.5 | 4.3 | 0.00 | 0.03 | 0.01 | 87 | 1008.4 |
| 20260830090858 | 57 | 179 | 3.5 | 4.3 | 0.00 | 0.03 | 0.01 | 87 | 1008.3 |
| 20260830090134 | 57 | 177 | 3.5 | 5.2 | 0.00 | 0.03 | 0.01 | 87 | 1008.3 |
| 20260830085409 | 57 | 180 | 3.5 | 5.2 | 0.00 | 0.03 | 0.01 | 87 | 1008.5 |
| 20260830084854 | 57 | 175 | 3.5 | 5.2 | 0.00 | 0.03 | 0.01 | 87 | 1008.2 |
| 20260830084350 | 58 | 179 | 3.5 | 5.2 | 0.00 | 0.03 | 0.01 | 86 | 1008.2 |
| 20260830083845 | 58 | 178 | 4.3 | 5.2 | 0.00 | 0.03 | 0.01 | 86 | 1008.1 |
| 20260830083342 | 58 | 180 | 4.3 | 5.2 | 0.00 | 0.03 | 0.01 | 86 | 1008.2 |
| 20260830082828 | 58 | 177 | 4.3 | 5.2 | 0.00 | 0.03 | 0.01 | 85 | 1008.1 |
| 20260830082324 | 58 | 175 | 4.3 | 4.3 | 0.00 | 0.03 | 0.01 | 85 | 1008.1 |
| 20260830081821 | 58 | 178 | 3.5 | 4.3 | 0.00 | 0.03 | 0.01 | 84 | 1008.2 |
| 20260830081550 | 58 | 179 | 3.5 | 4.3 | 0.00 | 0.03 | 0.01 | 84 | 1008.0 |
| 20260830080821 | 59 | 177 | 3.5 | 4.3 | 0.00 | 0.03 | 0.01 | 84 | 1007.9 |
| 20260830080317 | 59 | 175 | 3.5 | 4.3 | 0.00 | 0.03 | 0.01 | 83 | 1008.0 |
| 20260830075813 | 60 | 180 | 3.5 | 4.3 | 0.00 | 0.03 | 0.01 | 82 | 1007.8 |
| 20260830075536 | 60 | 175 | 3.5 | 4.3 | 0.00 | 0.03 | 0.01 | 81 | 1007.7 |
| 20260830074754 | 60 | 175 | 3.5 | 5.2 | 0.00 | 0.03 | 0.01 | 80 | 1008.0 |
| 20260830074251 | 61 | 173 | 3.5 | 5.2 | 0.00 | 0.03 | 0.01 | 79 | 1007.6 |
| 20260830073746 | 61 | 167 | 3.5 | 5.2 | 0.00 | 0.03 | 0.01 | 79 | 1007.8 |
| 20260830073242 | 61 | 173 | 3.5 | 5.2 | 0.00 | 0.03 | 0.01 | 78 | 1007.7 |
| 20260830072718 | 62 | 176 | 3.5 | 5.2 | 0.00 | 0.03 | 0.01 | 78 | 1007.6 |
| 20260830072214 | 62 | 173 | 3.5 | 4.3 | 0.00 | 0.03 | 0.01 | 77 | 1007.5 |
| 20260830071709 | 62 | 177 | 3.5 | 4.3 | 0.00 | 0.03 | 0.01 | 77 | 1007.5 |
| 20260830071701 | 62 | 178 | 3.5 | 5.2 | 0.00 | 0.03 | 0.01 | 76 | 1007.4 |
| 20260830070651 | 63 | 171 | 3.5 | 5.2 | 0.00 | 0.03 | 0.01 | 75 | 1007.2 |
| 20260830070146 | 63 | 170 | 4.3 | 5.2 | 0.00 | 0.03 | 0.01 | 75 | 1007.5 |
| 20260830065643 | 63 | 179 | 3.5 | 5.2 | 0.00 | 0.03 | 0.01 | 75 | 1007.4 |
| 20260830065128 | 63 | 173 | 3.5 | 5.2 | 0.00 | 0.03 | 0.01 | 75 | 1007.4 |
| 20260830064614 | 63 | 175 | 3.5 | 4.3 | 0.00 | 0.03 | 0.01 | 74 | 1007.4 |
| 20260830064109 | 63 | 173 | 4.3 | 5.2 | 0.00 | 0.03 | 0.01 | 74 | 1007.4 |
| 20260830063606 | 63 | 174 | 3.5 | 5.2 | 0.00 | 0.03 | 0.01 | 74 | 1007.2 |
| 20260830063052 | 64 | 178 | 3.5 | 4.3 | 0.00 | 0.03 | 0.01 | 74 | 1007.2 |
| 20260830062548 | 64 | 171 | 3.5 | 5.2 | 0.00 | 0.03 | 0.01 | 73 | 1007.2 |
| 20260830062044 | 64 | 173 | 4.3 | 5.2 | 0.00 | 0.03 | 0.01 | 72 | 1007.2 |
| 20260830061756 | 64 | 169 | 3.5 | 5.2 | 0.00 | 0.03 | 0.01 | 71 | 1007.1 |
| 20260830061035 | 65 | 178 | 3.5 | 5.2 | 0.00 | 0.03 | 0.01 | 70 | 1007.3 |
| 20260830060511 | 65 | 174 | 3.5 | 5.2 | 0.00 | 0.03 | 0.01 | 71 | 1007.1 |
| 20260830060005 | 64 | 177 | 3.5 | 5.2 | 0.00 | 0.03 | 0.01 | 69 | 1007.3 |
| 20260830055452 | 64 | 175 | 4.3 | 5.2 | 0.00 | 0.03 | 0.01 | 69 | 1007.2 |
| 20260830054947 | 65 | 173 | 3.5 | 7.0 | 0.00 | 0.03 | 0.01 | 68 | 1007.0 |
| 20260830054433 | 65 | 176 | 4.3 | 7.0 | 0.00 | 0.03 | 0.01 | 68 | 1007.2 |